createdAt,value
2019-02-15T00:00:42.677Z,7.80
2019-02-15T00:01:42.636Z,7.75
2019-02-15T00:02:42.635Z,7.80
2019-02-15T00:03:42.619Z,7.83
2019-02-15T00:04:42.602Z,7.80
2019-02-15T00:05:42.633Z,7.82
2019-02-15T00:06:42.580Z,7.80
2019-02-15T00:07:42.573Z,7.83
2019-02-15T00:08:42.566Z,7.80
2019-02-15T00:09:42.552Z,7.67
2019-02-15T00:10:42.544Z,7.83
2019-02-15T00:11:42.612Z,7.77
2019-02-15T00:12:42.517Z,7.79
2019-02-15T00:13:42.503Z,7.67
2019-02-15T00:14:42.499Z,7.79
2019-02-15T00:15:42.491Z,7.75
2019-02-15T00:16:42.505Z,7.82
2019-02-15T00:17:42.461Z,7.79
2019-02-15T00:18:42.450Z,7.75
2019-02-15T00:19:42.443Z,7.82
2019-02-15T00:20:42.435Z,7.79
2019-02-15T00:21:42.426Z,7.67
2019-02-15T00:22:42.447Z,7.67
2019-02-15T00:23:42.403Z,7.73
2019-02-15T00:24:42.386Z,7.70
2019-02-15T00:25:42.375Z,7.77
2019-02-15T00:26:42.364Z,7.58
2019-02-15T00:27:42.377Z,7.60
2019-02-15T00:28:42.368Z,7.72
2019-02-15T00:29:42.341Z,7.60
2019-02-15T00:30:42.323Z,7.67
2019-02-15T00:31:42.320Z,7.67
2019-02-15T00:32:42.336Z,7.70
2019-02-15T00:33:42.298Z,7.57
2019-02-15T00:34:42.290Z,7.53
2019-02-15T00:35:42.310Z,7.58
2019-02-15T00:36:42.260Z,7.42
2019-02-15T00:37:42.282Z,7.47
2019-02-15T00:38:42.257Z,7.42
2019-02-15T00:39:42.230Z,7.40
2019-02-15T00:40:42.223Z,7.43
2019-02-15T00:41:42.302Z,7.43
2019-02-15T00:42:42.248Z,7.48
2019-02-15T00:43:42.223Z,7.42
2019-02-15T00:44:42.175Z,7.43
2019-02-15T00:45:42.166Z,7.38
2019-02-15T00:46:42.158Z,7.38
2019-02-15T00:47:42.151Z,7.38
2019-02-15T00:48:42.140Z,7.39
2019-02-15T00:49:42.153Z,7.28
2019-02-15T00:50:42.117Z,7.28
2019-02-15T00:51:42.098Z,7.28
2019-02-15T00:52:42.094Z,7.33
2019-02-15T00:53:42.112Z,7.33
2019-02-15T00:54:42.074Z,7.32
2019-02-15T00:55:42.093Z,7.31
2019-02-15T00:56:42.047Z,7.29
2019-02-15T00:57:42.034Z,7.36
2019-02-15T00:58:42.028Z,7.25
2019-02-15T00:59:42.013Z,7.33
2019-02-15T01:00:42.035Z,7.29
2019-02-15T01:01:41.997Z,7.28
2019-02-15T01:02:41.983Z,7.35
2019-02-15T01:03:41.971Z,7.31
2019-02-15T01:04:41.968Z,7.31
2019-02-15T01:05:41.995Z,7.35
2019-02-15T01:06:41.949Z,7.29
2019-02-15T01:07:41.939Z,7.33
2019-02-15T01:08:41.919Z,7.32
2019-02-15T01:09:41.909Z,7.32
2019-02-15T01:10:41.918Z,7.20
2019-02-15T01:11:41.884Z,7.15
2019-02-15T01:12:41.883Z,7.13
2019-02-15T01:13:41.873Z,7.13
2019-02-15T01:14:41.865Z,7.17
2019-02-15T01:15:41.881Z,7.07
2019-02-15T01:16:41.835Z,7.13
2019-02-15T01:17:41.825Z,7.18
2019-02-15T01:18:41.818Z,7.21
2019-02-15T01:19:41.807Z,7.25
2019-02-15T01:20:41.788Z,7.23
2019-02-15T01:21:41.809Z,7.23
2019-02-15T01:22:41.770Z,7.31
2019-02-15T01:23:41.784Z,7.20
2019-02-15T01:24:41.751Z,7.23
2019-02-15T01:25:41.745Z,7.18
2019-02-15T01:26:41.770Z,7.28
2019-02-15T01:27:41.720Z,7.21
2019-02-15T01:28:41.707Z,7.17
2019-02-15T01:29:41.694Z,7.28
2019-02-15T01:30:41.679Z,7.28
2019-02-15T01:31:41.669Z,7.23
2019-02-15T01:32:41.708Z,7.18
2019-02-15T01:33:41.655Z,7.29
2019-02-15T01:34:41.642Z,7.21
2019-02-15T01:35:41.631Z,7.20
2019-02-15T01:36:41.644Z,7.17
2019-02-15T01:37:41.640Z,7.20
2019-02-15T01:38:41.605Z,7.24
2019-02-15T01:39:41.591Z,7.32
2019-02-15T01:40:41.577Z,7.18
2019-02-15T01:41:41.562Z,7.21
2019-02-15T01:42:41.580Z,7.23
2019-02-15T01:43:41.564Z,7.23
2019-02-15T01:44:41.535Z,7.21
2019-02-15T01:45:41.556Z,7.20
2019-02-15T01:46:41.527Z,7.20
2019-02-15T01:47:41.503Z,7.14
2019-02-15T01:48:41.493Z,7.13
2019-02-15T01:49:41.475Z,7.18
2019-02-15T01:50:41.474Z,7.23
2019-02-15T01:51:41.492Z,7.21
2019-02-15T01:52:41.449Z,7.21
2019-02-15T01:53:41.464Z,7.17
2019-02-15T01:54:41.425Z,7.31
2019-02-15T01:55:41.413Z,7.21
2019-02-15T01:56:41.412Z,7.17
2019-02-15T01:57:41.402Z,7.18
2019-02-15T01:58:41.390Z,7.17
2019-02-15T01:59:41.405Z,7.17
2019-02-15T02:00:41.370Z,7.20
2019-02-15T02:01:41.350Z,7.18
2019-02-15T02:02:41.342Z,7.13
2019-02-15T02:03:41.368Z,7.23
2019-02-15T02:04:41.325Z,7.03
2019-02-15T02:05:41.316Z,7.05
2019-02-15T02:06:41.304Z,7.13
2019-02-15T02:07:41.287Z,7.07
2019-02-15T02:08:41.280Z,6.97
2019-02-15T02:09:41.306Z,7.11
2019-02-15T02:10:41.259Z,7.13
2019-02-15T02:11:41.250Z,7.10
2019-02-15T02:12:41.264Z,6.99
2019-02-15T02:13:49.343Z,7.03
2019-02-15T02:14:42.242Z,7.06
2019-02-15T02:15:41.197Z,6.96
2019-02-15T02:16:41.196Z,7.03
2019-02-15T02:17:41.185Z,6.93
2019-02-15T02:18:41.179Z,6.99
2019-02-15T02:19:41.175Z,6.85
2019-02-15T02:20:41.173Z,6.84
2019-02-15T02:21:41.139Z,6.81
2019-02-15T02:22:41.133Z,6.78
2019-02-15T02:23:41.122Z,6.78
2019-02-15T02:24:41.103Z,6.75
2019-02-15T02:25:41.135Z,6.75
2019-02-15T02:26:41.080Z,6.69
2019-02-15T02:27:41.072Z,6.78
2019-02-15T02:28:41.069Z,6.69
2019-02-15T02:29:41.055Z,6.64
2019-02-15T02:30:41.046Z,6.64
2019-02-15T02:31:41.066Z,6.59
2019-02-15T02:32:41.017Z,6.60
2019-02-15T02:33:41.008Z,6.60
2019-02-15T02:34:40.996Z,6.57
2019-02-15T02:35:40.983Z,6.64
2019-02-15T02:36:40.983Z,6.51
2019-02-15T02:37:41.000Z,6.56
2019-02-15T02:38:40.951Z,6.63
2019-02-15T02:39:40.943Z,6.54
2019-02-15T02:40:40.937Z,6.56
2019-02-15T02:41:40.927Z,6.59
2019-02-15T02:42:40.978Z,6.56
2019-02-15T02:43:40.913Z,6.64
2019-02-15T02:44:40.893Z,6.60
2019-02-15T02:45:40.882Z,6.64
2019-02-15T02:46:40.867Z,6.60
2019-02-15T02:47:40.891Z,6.62
2019-02-15T02:48:40.864Z,6.75
2019-02-15T02:49:40.837Z,6.77
2019-02-15T02:50:40.828Z,6.70
2019-02-15T02:51:40.820Z,6.78
2019-02-15T02:52:40.828Z,6.79
2019-02-15T02:53:40.819Z,6.81
2019-02-15T02:54:40.786Z,6.77
2019-02-15T02:55:40.774Z,6.78
2019-02-15T02:56:40.761Z,6.84
2019-02-15T02:57:40.791Z,6.85
2019-02-15T02:58:40.735Z,6.88
2019-02-15T02:59:40.726Z,6.85
2019-02-15T03:00:40.725Z,6.85
2019-02-15T03:01:40.716Z,6.82
2019-02-15T03:02:40.694Z,6.81
2019-02-15T03:03:40.708Z,6.89
2019-02-15T03:04:40.680Z,6.84
2019-02-15T03:05:40.696Z,6.84
2019-02-15T03:06:40.656Z,6.88
2019-02-15T03:07:40.643Z,6.85
2019-02-15T03:08:40.659Z,6.81
2019-02-15T03:09:40.621Z,6.82
2019-02-15T03:10:40.612Z,6.78
2019-02-15T03:11:40.601Z,6.78
2019-02-15T03:12:40.582Z,6.79
2019-02-15T03:13:40.574Z,6.78
2019-02-15T03:14:40.616Z,6.75
2019-02-15T03:15:40.558Z,6.69
2019-02-15T03:16:40.579Z,6.64
2019-02-15T03:17:40.536Z,6.81
2019-02-15T03:18:40.537Z,6.70
2019-02-15T03:19:40.516Z,6.66
2019-02-15T03:20:40.497Z,6.63
2019-02-15T03:21:40.496Z,6.75
2019-02-15T03:22:40.505Z,6.57
2019-02-15T03:23:40.464Z,6.60
2019-02-15T03:24:40.458Z,6.60
2019-02-15T03:25:40.474Z,6.75
2019-02-15T03:26:40.444Z,6.64
2019-02-15T03:27:40.424Z,6.62
2019-02-15T03:28:40.422Z,6.49
2019-02-15T03:29:40.409Z,6.57
2019-02-15T03:30:40.417Z,6.60
2019-02-15T03:31:40.385Z,6.54
2019-02-15T03:32:40.375Z,6.52
2019-02-15T03:33:40.389Z,6.48
2019-02-15T03:34:40.349Z,6.67
2019-02-15T03:35:40.342Z,6.64
2019-02-15T03:36:40.339Z,6.62
2019-02-15T03:37:40.373Z,6.66
2019-02-15T03:38:40.311Z,6.57
2019-02-15T03:39:40.327Z,6.57
2019-02-15T03:40:40.284Z,6.59
2019-02-15T03:41:40.306Z,6.56
2019-02-15T03:42:40.266Z,6.52
2019-02-15T03:43:40.259Z,6.56
2019-02-15T03:44:40.239Z,6.59
2019-02-15T03:45:40.233Z,6.54
2019-02-15T03:46:40.223Z,6.51
2019-02-15T03:47:40.251Z,6.49
2019-02-15T03:48:40.205Z,6.51
2019-02-15T03:49:40.198Z,6.48
2019-02-15T03:50:40.179Z,6.63
2019-02-15T03:51:40.170Z,6.63
2019-02-15T03:52:40.179Z,6.54
2019-02-15T03:53:40.142Z,6.52
2019-02-15T03:54:40.171Z,6.56
2019-02-15T03:55:40.120Z,6.49
2019-02-15T03:56:40.136Z,6.51
2019-02-15T03:57:40.127Z,6.59
2019-02-15T03:58:40.087Z,6.52
2019-02-15T03:59:40.077Z,6.38
2019-02-15T04:00:40.098Z,6.41
2019-02-15T04:01:40.096Z,6.45
2019-02-15T04:02:40.049Z,6.46
2019-02-15T04:03:40.064Z,6.44
2019-02-15T04:04:40.041Z,6.51
2019-02-15T04:05:40.014Z,6.41
2019-02-15T04:06:40.022Z,6.44
2019-02-15T04:07:39.994Z,6.39
2019-02-15T04:08:40.017Z,6.51
2019-02-15T04:09:39.978Z,6.56
2019-02-15T04:10:39.972Z,6.49
2019-02-15T04:11:39.956Z,6.46
2019-02-15T04:12:39.983Z,6.56
2019-02-15T04:13:39.927Z,6.51
2019-02-15T04:14:39.919Z,6.44
2019-02-15T04:15:39.916Z,6.46
2019-02-15T04:16:39.894Z,6.51
2019-02-15T04:17:39.915Z,6.59
2019-02-15T04:18:39.871Z,6.52
2019-02-15T04:19:39.891Z,6.45
2019-02-15T04:20:39.864Z,6.57
2019-02-15T04:21:39.849Z,6.56
2019-02-15T04:22:39.836Z,6.63
2019-02-15T04:23:39.823Z,6.63
2019-02-15T04:24:39.964Z,6.59
2019-02-15T04:25:39.794Z,6.51
2019-02-15T04:26:39.785Z,6.59
2019-02-15T04:27:39.786Z,6.62
2019-02-15T04:28:39.782Z,6.56
2019-02-15T04:29:39.786Z,6.60
2019-02-15T04:30:39.745Z,6.60
2019-02-15T04:31:39.731Z,6.57
2019-02-15T04:32:39.731Z,6.51
2019-02-15T04:33:39.717Z,6.59
2019-02-15T04:34:39.738Z,6.60
2019-02-15T04:35:39.694Z,6.57
2019-02-15T04:36:39.679Z,6.63
2019-02-15T04:37:39.673Z,6.63
2019-02-15T04:38:39.665Z,6.48
2019-02-15T04:39:39.648Z,6.49
2019-02-15T04:40:39.673Z,6.48
2019-02-15T04:41:39.634Z,6.45
2019-02-15T04:42:39.640Z,6.45
2019-02-15T04:43:39.606Z,6.51
2019-02-15T04:44:42.738Z,6.52
2019-02-15T04:45:39.607Z,6.51
2019-02-15T04:46:39.581Z,6.41
2019-02-15T04:47:39.572Z,6.48
2019-02-15T04:48:39.551Z,6.41
2019-02-15T04:49:39.537Z,6.51
2019-02-15T04:50:39.558Z,6.38
2019-02-15T04:51:39.525Z,6.48
2019-02-15T04:52:39.513Z,6.38
2019-02-15T04:53:39.534Z,6.39
2019-02-15T04:54:39.494Z,6.35
2019-02-15T04:55:39.480Z,6.45
2019-02-15T04:56:39.494Z,6.38
2019-02-15T04:57:39.452Z,6.35
2019-02-15T04:58:39.461Z,6.38
2019-02-15T04:59:39.434Z,6.35
2019-02-15T05:00:39.438Z,6.36
2019-02-15T05:01:39.444Z,6.33
2019-02-15T05:02:39.398Z,6.39
2019-02-15T05:03:39.387Z,6.35
2019-02-15T05:04:39.383Z,6.39
2019-02-15T05:05:39.403Z,6.45
2019-02-15T05:06:39.362Z,6.41
2019-02-15T05:07:39.355Z,6.36
2019-02-15T05:08:39.336Z,6.42
2019-02-15T05:09:39.324Z,6.42
2019-02-15T05:10:39.513Z,6.39
2019-02-15T05:11:39.304Z,6.33
2019-02-15T05:12:39.334Z,6.36
2019-02-15T05:13:39.285Z,6.33
2019-02-15T05:14:39.278Z,6.30
2019-02-15T05:15:39.268Z,6.41
2019-02-15T05:16:39.278Z,6.36
2019-02-15T05:17:39.253Z,6.33
2019-02-15T05:18:39.232Z,6.28
2019-02-15T05:19:39.223Z,6.24
2019-02-15T05:20:39.207Z,6.36
2019-02-15T05:21:39.226Z,6.35
2019-02-15T05:22:39.186Z,6.35
2019-02-15T05:23:39.173Z,6.33
2019-02-15T05:24:39.178Z,6.35
2019-02-15T05:25:39.161Z,6.31
2019-02-15T05:26:39.176Z,6.30
2019-02-15T05:27:39.145Z,6.33
2019-02-15T05:28:39.121Z,6.36
2019-02-15T05:29:39.119Z,6.31
2019-02-15T05:30:39.099Z,6.22
2019-02-15T05:31:39.085Z,6.27
2019-02-15T05:32:39.113Z,6.24
2019-02-15T05:33:39.076Z,6.30
2019-02-15T05:34:39.061Z,6.35
2019-02-15T05:35:39.050Z,6.36
2019-02-15T05:36:39.039Z,6.35
2019-02-15T05:37:39.058Z,6.41
2019-02-15T05:38:41.234Z,6.35
2019-02-15T05:39:39.008Z,6.38
2019-02-15T05:40:39.000Z,6.35
2019-02-15T05:41:38.979Z,6.36
2019-02-15T05:42:39.011Z,6.36
2019-02-15T05:43:39.179Z,6.27
2019-02-15T05:44:38.959Z,6.33
2019-02-15T05:45:38.945Z,6.24
2019-02-15T05:46:38.932Z,6.28
2019-02-15T05:47:38.952Z,6.24
2019-02-15T05:48:38.968Z,6.22
2019-02-15T05:49:38.907Z,6.31
2019-02-15T05:50:38.890Z,6.27
2019-02-15T05:51:38.878Z,6.27
2019-02-15T05:52:38.862Z,6.20
2019-02-15T05:53:38.850Z,6.27
2019-02-15T05:54:38.866Z,6.28
2019-02-15T05:55:38.838Z,6.20
2019-02-15T05:56:38.833Z,6.20
2019-02-15T05:57:38.817Z,6.14
2019-02-15T05:58:38.840Z,6.12
2019-02-15T05:59:38.795Z,6.12
2019-02-15T06:00:38.778Z,6.12
2019-02-15T06:01:38.769Z,6.20
2019-02-15T06:02:38.760Z,6.20
2019-02-15T06:03:38.778Z,6.11
2019-02-15T06:04:38.784Z,6.12
2019-02-15T06:05:38.743Z,6.08
2019-02-15T06:06:38.731Z,6.19
2019-02-15T06:07:38.706Z,6.17
2019-02-15T06:08:38.732Z,6.20
2019-02-15T06:09:38.687Z,6.27
2019-02-15T06:10:38.678Z,6.24
2019-02-15T06:11:38.670Z,6.20
2019-02-15T06:12:38.664Z,6.20
2019-02-15T06:13:38.644Z,6.17
2019-02-15T06:14:38.658Z,6.22
2019-02-15T06:15:38.617Z,6.16
2019-02-15T06:16:38.613Z,6.07
2019-02-15T06:17:38.605Z,6.14
2019-02-15T06:18:38.623Z,6.11
2019-02-15T06:19:38.604Z,6.12
2019-02-15T06:20:38.565Z,6.14
2019-02-15T06:21:38.559Z,6.04
2019-02-15T06:22:38.547Z,5.94
2019-02-15T06:23:38.540Z,5.83
2019-02-15T06:24:38.552Z,5.75
2019-02-15T06:25:38.510Z,5.69
2019-02-15T06:26:38.509Z,5.69
2019-02-15T06:27:38.489Z,5.65
2019-02-15T06:28:38.521Z,5.69
2019-02-15T06:29:38.492Z,5.66
2019-02-15T06:30:38.462Z,5.65
2019-02-15T06:31:38.450Z,5.72
2019-02-15T06:32:38.433Z,5.73
2019-02-15T06:33:38.429Z,5.82
2019-02-15T06:34:38.438Z,5.84
2019-02-15T06:35:38.402Z,5.87
2019-02-15T06:36:38.397Z,5.90
2019-02-15T06:37:38.401Z,5.90
2019-02-15T06:38:38.398Z,5.86
2019-02-15T06:39:38.366Z,5.94
2019-02-15T06:40:38.352Z,5.97
2019-02-15T06:41:38.370Z,5.97
2019-02-15T06:42:38.346Z,6.04
2019-02-15T06:43:38.348Z,6.01
2019-02-15T06:44:38.338Z,6.02
2019-02-15T06:45:38.297Z,6.07
2019-02-15T06:46:38.303Z,6.09
2019-02-15T06:47:38.292Z,6.09
2019-02-15T06:48:38.269Z,6.17
2019-02-15T06:49:38.287Z,6.02
2019-02-15T06:50:38.248Z,5.98
2019-02-15T06:51:38.268Z,6.07
2019-02-15T06:52:38.233Z,5.93
2019-02-15T06:53:38.212Z,5.86
2019-02-15T06:54:40.725Z,5.86
2019-02-15T06:55:38.405Z,5.80
2019-02-15T06:56:39.371Z,5.76
2019-02-15T06:57:38.305Z,5.75
2019-02-15T06:58:45.425Z,5.73
2019-02-15T06:59:39.377Z,5.69
2019-02-15T07:00:39.547Z,5.73
2019-02-15T07:01:39.204Z,5.62
2019-02-15T07:02:38.286Z,5.61
2019-02-15T07:03:40.131Z,5.54
2019-02-15T07:04:39.191Z,5.59
2019-02-15T07:05:38.234Z,5.57
2019-02-15T07:06:38.687Z,5.53
2019-02-15T07:07:38.124Z,5.56
2019-02-15T07:08:38.424Z,5.48
2019-02-15T07:09:38.643Z,5.66
2019-02-15T07:10:38.151Z,5.69
2019-02-15T07:11:38.098Z,5.64
2019-02-15T07:12:38.048Z,5.72
2019-02-15T07:13:38.069Z,5.76
2019-02-15T07:14:38.016Z,5.76
2019-02-15T07:15:38.055Z,5.79
2019-02-15T07:16:38.207Z,5.80
2019-02-15T07:17:37.960Z,5.79
2019-02-15T07:18:38.004Z,5.83
2019-02-15T07:19:37.937Z,5.84
2019-02-15T07:20:37.937Z,5.93
2019-02-15T07:21:37.916Z,5.84
2019-02-15T07:22:37.930Z,5.83
2019-02-15T07:23:38.098Z,5.79
2019-02-15T07:24:37.909Z,5.75
2019-02-15T07:25:37.872Z,5.82
2019-02-15T07:26:37.921Z,5.71
2019-02-15T07:27:37.887Z,5.76
2019-02-15T07:28:37.835Z,5.87
2019-02-15T07:29:37.823Z,5.83
2019-02-15T07:30:37.842Z,5.83
2019-02-15T07:31:37.804Z,5.80
2019-02-15T07:32:37.905Z,5.72
2019-02-15T07:33:37.842Z,5.83
2019-02-15T07:34:37.796Z,5.87
2019-02-15T07:35:37.895Z,5.86
2019-02-15T07:36:37.750Z,5.90
2019-02-15T07:37:37.799Z,5.99
2019-02-15T07:38:37.852Z,6.19
2019-02-15T07:39:37.739Z,6.14
2019-02-15T07:40:37.731Z,6.27
2019-02-15T07:41:37.700Z,6.26
2019-02-15T07:42:37.684Z,6.35
2019-02-15T07:43:37.700Z,6.39
2019-02-15T07:44:37.669Z,6.38
2019-02-15T07:45:42.795Z,6.51
2019-02-15T07:46:38.655Z,6.54
2019-02-15T07:47:37.654Z,6.56
2019-02-15T07:48:37.642Z,6.57
2019-02-15T07:49:37.611Z,6.49
2019-02-15T07:50:37.599Z,6.57
2019-02-15T07:51:37.588Z,6.74
2019-02-15T07:52:37.587Z,6.67
2019-02-15T07:53:37.606Z,6.64
2019-02-15T07:54:37.574Z,6.69
2019-02-15T07:55:37.551Z,6.75
2019-02-15T07:56:37.535Z,6.72
2019-02-15T07:57:37.527Z,6.79
2019-02-15T07:58:37.518Z,6.81
2019-02-15T07:59:37.572Z,6.85
2019-02-15T08:00:37.496Z,6.79
2019-02-15T08:01:37.483Z,6.70
2019-02-15T08:02:37.470Z,6.63
2019-02-15T08:03:37.463Z,6.75
2019-02-15T08:04:37.531Z,6.77
2019-02-15T08:05:37.446Z,6.77
2019-02-15T08:06:37.442Z,6.88
2019-02-15T08:07:37.424Z,6.85
2019-02-15T08:08:37.410Z,6.96
2019-02-15T08:09:37.431Z,6.93
2019-02-15T08:10:39.445Z,7.00
2019-02-15T08:11:37.997Z,7.06
2019-02-15T08:12:37.396Z,7.13
2019-02-15T08:13:37.362Z,7.17
2019-02-15T08:14:37.345Z,7.20
2019-02-15T08:15:37.338Z,7.33
2019-02-15T08:16:38.732Z,7.31
2019-02-15T08:17:37.321Z,7.40
2019-02-15T08:18:37.346Z,7.51
2019-02-15T08:19:37.301Z,7.54
2019-02-15T08:20:37.297Z,7.57
2019-02-15T08:21:37.299Z,7.69
2019-02-15T08:22:37.264Z,7.70
2019-02-15T08:23:37.248Z,7.73
2019-02-15T08:24:38.008Z,7.85
2019-02-15T08:25:37.259Z,7.85
2019-02-15T08:26:37.227Z,7.93
2019-02-15T08:27:37.211Z,8.03
2019-02-15T08:28:37.228Z,8.03
2019-02-15T08:29:37.188Z,8.12
2019-02-15T08:30:37.210Z,8.13
2019-02-15T08:31:37.172Z,8.12
2019-02-15T08:32:37.161Z,8.28
2019-02-15T08:33:37.140Z,8.38
2019-02-15T08:34:37.153Z,8.52
2019-02-15T08:35:37.122Z,8.55
2019-02-15T08:36:37.148Z,8.60
2019-02-15T08:37:37.109Z,8.73
2019-02-15T08:38:37.099Z,8.91
2019-02-15T08:39:37.083Z,8.92
2019-02-15T08:40:37.579Z,9.00
2019-02-15T08:41:37.075Z,9.08
2019-02-15T08:42:37.047Z,9.21
2019-02-15T08:43:37.038Z,9.47
2019-02-15T08:44:37.053Z,9.68
2019-02-15T08:45:37.020Z,9.84
2019-02-15T08:46:37.032Z,10.60
2019-02-15T08:47:36.992Z,11.69
2019-02-15T08:48:45.732Z,13.49
2019-02-15T08:49:37.977Z,15.29
2019-02-15T08:50:36.966Z,16.72
2019-02-15T08:51:36.955Z,17.82
2019-02-15T08:52:36.966Z,18.83
2019-02-15T08:53:36.927Z,19.71
2019-02-15T08:54:36.939Z,20.52
2019-02-15T08:55:36.910Z,21.37
2019-02-15T08:56:36.902Z,22.06
2019-02-15T08:57:36.922Z,22.80
2019-02-15T08:58:36.882Z,23.41
2019-02-15T08:59:36.874Z,24.03
2019-02-15T09:00:36.851Z,24.53
2019-02-15T09:01:36.842Z,24.96
2019-02-15T09:02:36.862Z,25.35
2019-02-15T09:03:36.826Z,25.73
2019-02-15T09:04:36.817Z,25.96
2019-02-15T09:05:36.810Z,26.40
2019-02-15T09:06:36.816Z,26.58
2019-02-15T09:07:36.813Z,26.99
2019-02-15T09:08:36.780Z,27.29
2019-02-15T09:09:37.334Z,27.64
2019-02-15T09:10:36.754Z,27.89
2019-02-15T09:11:36.743Z,28.14
2019-02-15T09:12:36.725Z,28.35
2019-02-15T09:13:36.737Z,28.52
2019-02-15T09:14:36.704Z,28.48
2019-02-15T09:15:36.697Z,28.39
2019-02-15T09:16:36.696Z,28.62
2019-02-15T09:17:36.680Z,28.82
2019-02-15T09:18:36.685Z,29.01
2019-02-15T09:19:36.652Z,29.24
2019-02-15T09:20:36.653Z,29.61
2019-02-15T09:21:36.643Z,29.75
2019-02-15T09:22:36.630Z,29.84
2019-02-15T09:23:36.645Z,29.56
2019-02-15T09:24:36.601Z,29.08
2019-02-15T09:25:36.592Z,28.70
2019-02-15T09:26:36.601Z,28.10
2019-02-15T09:27:36.571Z,27.45
2019-02-15T09:28:36.594Z,27.11
2019-02-15T09:29:36.557Z,26.66
2019-02-15T09:30:36.545Z,26.33
2019-02-15T09:31:36.533Z,25.77
2019-02-15T09:32:36.521Z,25.21
2019-02-15T09:33:36.543Z,24.63
2019-02-15T09:34:36.503Z,24.02
2019-02-15T09:35:36.495Z,23.34
2019-02-15T09:36:36.479Z,22.96
2019-02-15T09:37:36.468Z,22.72
2019-02-15T09:38:36.460Z,22.80
2019-02-15T09:39:36.475Z,22.43
2019-02-15T09:40:36.440Z,21.89
2019-02-15T09:41:36.432Z,21.30
2019-02-15T09:42:36.420Z,20.63
2019-02-15T09:43:36.408Z,20.37
2019-02-15T09:44:36.431Z,20.40
2019-02-15T09:45:36.382Z,20.41
2019-02-15T09:46:36.376Z,20.29
2019-02-15T09:47:36.364Z,20.21
2019-02-15T09:48:36.356Z,20.02
2019-02-15T09:49:36.345Z,19.45
2019-02-15T09:50:36.354Z,19.00
2019-02-15T09:51:36.319Z,19.09
2019-02-15T09:52:36.317Z,19.40
2019-02-15T09:53:36.304Z,19.71
2019-02-15T09:54:36.321Z,20.16
2019-02-15T09:55:36.283Z,20.77
2019-02-15T09:56:36.265Z,21.37
2019-02-15T09:57:36.261Z,21.99
2019-02-15T09:58:36.245Z,22.87
2019-02-15T09:59:36.284Z,23.46
2019-02-15T10:00:36.230Z,24.18
2019-02-15T10:01:36.219Z,24.98
2019-02-15T10:02:36.211Z,25.50
2019-02-15T10:03:36.202Z,26.06
2019-02-15T10:04:36.179Z,26.71
2019-02-15T10:05:36.192Z,27.17
2019-02-15T10:06:36.170Z,27.49
2019-02-15T10:07:36.153Z,27.64
2019-02-15T10:08:36.152Z,27.64
2019-02-15T10:09:36.130Z,27.22
2019-02-15T10:10:36.142Z,26.78
2019-02-15T10:11:36.106Z,26.34
2019-02-15T10:12:36.109Z,25.69
2019-02-15T10:13:36.097Z,24.91
2019-02-15T10:14:36.105Z,24.18
2019-02-15T10:15:36.074Z,23.84
2019-02-15T10:16:36.056Z,23.47
2019-02-15T10:17:36.067Z,23.08
2019-02-15T10:18:36.032Z,22.48
2019-02-15T10:19:36.025Z,21.98
2019-02-15T10:20:36.023Z,21.61
2019-02-15T10:21:36.024Z,21.27
2019-02-15T10:22:36.018Z,20.88
2019-02-15T10:23:35.986Z,20.63
2019-02-15T10:24:36.006Z,20.28
2019-02-15T10:25:35.967Z,19.91
2019-02-15T10:26:35.962Z,19.59
2019-02-15T10:27:35.970Z,19.30
2019-02-15T10:28:35.931Z,18.92
2019-02-15T10:29:35.925Z,18.71
2019-02-15T10:30:35.908Z,18.50
2019-02-15T10:31:35.900Z,18.25
2019-02-15T10:32:35.899Z,18.22
2019-02-15T10:33:35.910Z,18.08
2019-02-15T10:34:35.876Z,17.97
2019-02-15T10:35:35.862Z,18.01
2019-02-15T10:36:35.845Z,17.92
2019-02-15T10:37:35.836Z,18.04
2019-02-15T10:38:35.865Z,17.98
2019-02-15T10:39:35.821Z,18.08
2019-02-15T10:40:35.806Z,18.19
2019-02-15T10:41:35.793Z,18.22
2019-02-15T10:42:35.782Z,18.33
2019-02-15T10:43:35.774Z,18.28
2019-02-15T10:44:35.792Z,18.33
2019-02-15T10:45:35.760Z,18.49
2019-02-15T10:46:37.762Z,18.47
2019-02-15T10:47:35.734Z,18.45
2019-02-15T10:48:35.734Z,18.53
2019-02-15T10:49:35.731Z,18.41
2019-02-15T10:50:35.706Z,18.41
2019-02-15T10:51:35.687Z,18.19
2019-02-15T10:52:35.679Z,18.23
2019-02-15T10:53:35.669Z,18.23
2019-02-15T10:54:35.687Z,18.41
2019-02-15T10:55:35.644Z,18.38
2019-02-15T10:56:35.642Z,18.44
2019-02-15T10:57:35.631Z,18.50
2019-02-15T10:58:35.618Z,18.44
2019-02-15T10:59:35.632Z,18.35
2019-02-15T11:00:35.617Z,18.25
2019-02-15T11:01:35.584Z,18.16
2019-02-15T11:02:35.570Z,18.16
2019-02-15T11:03:36.690Z,18.10
2019-02-15T11:04:35.553Z,18.03
2019-02-15T11:05:35.565Z,18.01
2019-02-15T11:06:35.533Z,17.89
2019-02-15T11:07:35.532Z,17.87
2019-02-15T11:08:35.512Z,17.80
2019-02-15T11:09:35.493Z,17.78
2019-02-15T11:10:35.510Z,17.80
2019-02-15T11:11:35.488Z,17.63
2019-02-15T11:12:35.463Z,17.60
2019-02-15T11:13:35.450Z,17.46
2019-02-15T11:14:35.438Z,17.26
2019-02-15T11:15:35.451Z,17.23
2019-02-15T11:16:35.424Z,17.19
2019-02-15T11:17:35.420Z,17.02
2019-02-15T11:18:35.424Z,17.04
2019-02-15T11:19:35.393Z,17.04
2019-02-15T11:20:35.399Z,16.97
2019-02-15T11:21:35.370Z,16.96
2019-02-15T11:22:35.364Z,17.01
2019-02-15T11:23:35.345Z,16.97
2019-02-15T11:24:35.346Z,17.01
2019-02-15T11:25:35.362Z,16.96
2019-02-15T11:26:35.314Z,16.78
2019-02-15T11:27:35.300Z,16.71
2019-02-15T11:28:35.296Z,16.68
2019-02-15T11:29:35.299Z,16.71
2019-02-15T11:30:35.274Z,16.71
2019-02-15T11:31:35.297Z,16.68
2019-02-15T11:32:35.254Z,16.69
2019-02-15T11:33:35.237Z,16.78
2019-02-15T11:34:35.232Z,16.78
2019-02-15T11:35:35.226Z,16.89
2019-02-15T11:36:35.231Z,16.87
2019-02-15T11:37:35.229Z,16.96
2019-02-15T11:38:35.184Z,16.97
2019-02-15T11:39:35.172Z,16.84
2019-02-15T11:40:35.165Z,16.87
2019-02-15T11:41:35.156Z,17.01
2019-02-15T11:42:35.142Z,17.02
2019-02-15T11:43:35.152Z,17.05
2019-02-15T11:44:35.135Z,17.05
2019-02-15T11:45:35.111Z,17.01
2019-02-15T11:46:35.105Z,17.02
2019-02-15T11:47:35.115Z,17.01
2019-02-15T11:48:35.090Z,17.05
2019-02-15T11:49:35.064Z,16.97
2019-02-15T11:50:35.057Z,17.02
2019-02-15T11:51:35.042Z,16.99
2019-02-15T11:52:35.037Z,16.94
2019-02-15T11:53:35.049Z,17.02
2019-02-15T11:54:35.017Z,17.01
2019-02-15T11:55:35.006Z,16.84
2019-02-15T11:56:34.992Z,16.86
2019-02-15T11:57:34.979Z,16.96
2019-02-15T11:58:34.998Z,16.90
2019-02-15T11:59:34.962Z,16.83
2019-02-15T12:00:34.984Z,16.90
2019-02-15T12:01:34.936Z,17.01
2019-02-15T12:02:34.927Z,16.91
2019-02-15T12:03:34.915Z,16.91
2019-02-15T12:04:34.908Z,17.05
2019-02-15T12:05:34.899Z,16.99
2019-02-15T12:06:34.918Z,17.02
2019-02-15T12:07:34.879Z,17.05
2019-02-15T12:08:34.880Z,17.04
2019-02-15T12:09:34.875Z,17.05
2019-02-15T12:10:34.846Z,17.04
2019-02-15T12:11:34.832Z,17.04
2019-02-15T12:12:34.823Z,17.05
2019-02-15T12:13:34.815Z,17.11
2019-02-15T12:14:34.826Z,16.99
2019-02-15T12:15:34.782Z,17.01
2019-02-15T12:16:34.780Z,16.97
2019-02-15T12:17:34.774Z,17.04
2019-02-15T12:18:34.756Z,17.01
2019-02-15T12:19:34.749Z,17.02
2019-02-15T12:20:34.755Z,17.01
2019-02-15T12:21:34.725Z,17.01
2019-02-15T12:22:34.708Z,16.99
2019-02-15T12:23:34.697Z,17.01
2019-02-15T12:24:34.698Z,17.02
2019-02-15T12:25:34.709Z,17.01
2019-02-15T12:26:34.675Z,16.99
2019-02-15T12:27:34.663Z,17.02
2019-02-15T12:28:34.701Z,17.02
2019-02-15T12:29:34.639Z,16.99
2019-02-15T12:30:34.653Z,16.94
2019-02-15T12:31:34.618Z,16.99
2019-02-15T12:32:34.602Z,16.90
2019-02-15T12:33:34.591Z,16.91
2019-02-15T12:34:34.582Z,16.97
2019-02-15T12:35:34.599Z,16.96
2019-02-15T12:36:34.586Z,16.78
2019-02-15T12:37:34.556Z,16.93
2019-02-15T12:38:34.549Z,17.01
2019-02-15T12:39:34.531Z,17.02
2019-02-15T12:40:34.518Z,16.97
2019-02-15T12:41:34.528Z,17.01
2019-02-15T12:42:34.493Z,17.05
2019-02-15T12:43:34.482Z,17.02
2019-02-15T12:44:34.480Z,17.04
2019-02-15T12:45:34.496Z,17.06
2019-02-15T12:46:34.488Z,16.96
2019-02-15T12:47:34.443Z,16.94
2019-02-15T12:48:34.436Z,17.06
2019-02-15T12:49:34.428Z,17.05
2019-02-15T12:50:34.414Z,16.99
2019-02-15T12:51:34.406Z,17.04
2019-02-15T12:52:34.410Z,17.02
2019-02-15T12:53:34.375Z,17.01
2019-02-15T12:54:34.369Z,17.04
2019-02-15T12:55:34.358Z,16.99
2019-02-15T12:56:34.353Z,16.96
2019-02-15T12:57:34.370Z,17.02
2019-02-15T12:58:34.335Z,16.87
2019-02-15T12:59:34.317Z,16.89
2019-02-15T13:00:34.304Z,16.86
2019-02-15T13:01:34.289Z,16.96
2019-02-15T13:02:34.284Z,16.94
2019-02-15T13:03:34.646Z,16.84
2019-02-15T13:04:34.258Z,16.96
2019-02-15T13:05:34.247Z,16.94
2019-02-15T13:06:34.238Z,16.99
2019-02-15T13:07:34.236Z,17.04
2019-02-15T13:08:34.245Z,16.97
2019-02-15T13:09:34.211Z,16.96